MUCA/AVI METAR and TAF weather

Enter ICAO airport designator
Station Type Date Time Source
MUCA METAR 2008/05/18 10:52 UTC NOAA

MUCA 181052Z 27002KT 9000 FEW020 19/18 Q1017


Station Type Date Time Source
MUCA Decoded METAR 2008/05/18 10:52 UTC NOAA

Venezuela, Ciego De Avila, Cuba (MUCA) 21-47N 078-47W 26M
May 18, 2008 - 06:52 AM EDT / 2008.05.18 1052 UTC
Wind: from the W (270 degrees) at 2 MPH (2 KT):0
Visibility: 5 mile(s):0
Sky conditions: mostly clear
Temperature: 66 F (19 C)
Dew Point: 64 F (18 C)
Relative Humidity: 93%
Pressure (altimeter): 30.03 in. Hg (1017 hPa)
ob: MUCA 181052Z 27002KT 9000 FEW020 19/18 Q1017
cycle: 11

Station Type Date Time Source
MUCA TAF 2008/03/26 16:30 UTC NOAA

MUCA 261630Z 261824 06016G26KT 9000 SCT020


Example: see airport list